Skip Navigation Links
NOAA logo - Click to go to the NOAA homepage
NOAA's National Weather Service
Alaska Aviation Weather Unit
  NWS logo - Click to go to the NWS homepage
Left Navbar Graphic     21 AKDT = 05 GMT

   
NOAA is celebrating 200 years of science, service, and stewardship. Visit the NOAA 200th celebration Web site to learn more.
USA.gov is the U.S. Government's official Web portal to all Federal, state and local government Web resources and services.
Facebook
NWS on Facebook

Important Change Regarding the AAWU Web Presence

 

Over the last several months, the AAWU has been working to navigate its webpages to a nationally supported server. Security, as well as other needs, have necessitated the change.  In the process, we have made an effort to enhance the functionality of our website, as well as some of our products. As of June 27, 2017, aawu.arh.noaa.gov will be discontinued. The new AAWU web address is weather.gov/aawu. It is now live and will run in-parallel with the old site until it is discontinued. Please send any feedback or questions regarding the new webpages to nws.ar.aawu.webauthors@noaa.gov.  Thank you for your patience during this time of transition.
AAWU Home :: Display TAF Add Bookmark
TAF PAHN 242338Z 2500/2524 12007KT P6SM -RA BKN050 OVC060
     FM250600 30004KT P6SM BKN050 OVC120
     FM251300 30004KT P6SM VCSH OVC040
      AMD LTD TO CLD VIS AND WIND=

METAR PAHN 242354Z AUTO 09005KT 10SM -RA OVC041 13/09 A3014 RMK AO2 SLP207 P0001 60001 T01280094 10133 20106 58002 TSNO= METAR PAHN 250054Z AUTO 12005KT 10SM OVC070 13/10 A3012 RMK AO2 RAE49 SLP201 P0000 T01280100 TSNO= METAR PAHN 250154Z AUTO 13006KT 10SM BKN060 OVC070 13/11 A3011 RMK AO2 SLP198 T01280106 TSNO= METAR PAHN 250254Z AUTO 08004KT 10SM OVC055 13/11 A3010 RMK AO2 SLP194 60000 T01280106 56014 TSNO= METAR PAHN 250354Z AUTO 08005KT 10SM -RA OVC060 12/09 A3009 RMK AO2 RAB51 SLP191 P0000 T01220094 TSNO= METAR PAHN 250454Z AUTO 00000KT 10SM OVC050 12/11 A3008 RMK AO2 RAE12 SLP190 P0000 T01220106 TSNO=
 Alaska TAF Map

NOAA's National Weather Service
Alaska Aviation Weather Unit
6930 Sand Lake Road
Anchorage, AK 99502-1845
Disclaimer
Credits
Glossary
Privacy Policy
About Us
Career Opportunities
Contact AAWU Internet Services Site last modified: April, 17th 2012